Terminal Aerodrome Forecast
Issued by NWS

Home | Current Version | Previous Version | Text Only | Print | Product List | Glossary On
Versions: 1 2 3 4 5 6 7 8 9 10 11 12 13 14 15 16 17 18 19 20 21 22 23 24 25 26 27 28 29 30 31 32 33 34 35 36 37 38 39 40 41 42 43 44 45 46 47 48
000
FTUS44 KHGX 271139
TAFIAH
TAF
KIAH 271139Z 2712/2818 17006KT P6SM OVC009
     FM271400 16006KT 6SM BR VCSH OVC010
     FM271800 30005KT 4SM -SHRA BR BKN015
      TEMPO 2718/2722 1SM -TSRA BKN009CB
     FM280100 35014G22KT P6SM -RA BKN009
     FM280900 35014KT P6SM VCSH OVC015=

USA.gov is the U.S. government's official web portal to all federal, state and local government web resources and services.